Terminal Aerodrome Forecast
Issued by NWS

Current Version | Previous Version | Text Only | Print | Product List | Glossary Off
Versions: 1 2 3 4 5 6 7 8 9 10 11 12 13 14 15 16 17 18 19 20 21 22 23

642
FTUS41 KILN 121143
TAFLUK
TAF
KLUK 121143Z 1212/1312 29012G20KT 5SM -DZ BR OVC018
     FM121300 30015G23KT P6SM BKN025 OVC040
      TEMPO 1213/1215 3SM -SHSN
     FM121700 31015G23KT P6SM BKN045
     FM122300 30011KT P6SM SCT045
     FM130300 28007KT P6SM SKC
     FM131000 22004KT P6SM SCT100=

USA.gov is the U.S. government's official web portal to all federal, state and local government web resources and services.